sensor_id;sensor_type;location;lat;lon;timestamp;P1;durP1;ratioP1;P2;durP2;ratioP2
19828;SDS011;10075;50.924;4.396;2023-01-28T00:01:28;14.13;;;11.50;;
19828;SDS011;10075;50.924;4.396;2023-01-28T00:03:55;14.20;;;11.00;;
19828;SDS011;10075;50.924;4.396;2023-01-28T00:06:22;15.90;;;12.40;;
19828;SDS011;10075;50.924;4.396;2023-01-28T00:08:49;15.57;;;11.93;;
19828;SDS011;10075;50.924;4.396;2023-01-28T00:11:16;15.40;;;11.03;;
19828;SDS011;10075;50.924;4.396;2023-01-28T00:13:43;15.03;;;11.63;;
19828;SDS011;10075;50.924;4.396;2023-01-28T00:16:12;13.43;;;10.93;;
19828;SDS011;10075;50.924;4.396;2023-01-28T00:18:39;13.80;;;11.27;;
19828;SDS011;10075;50.924;4.396;2023-01-28T00:21:06;15.93;;;10.90;;
19828;SDS011;10075;50.924;4.396;2023-01-28T00:23:36;14.60;;;10.90;;
19828;SDS011;10075;50.924;4.396;2023-01-28T00:26:05;12.60;;;9.93;;
19828;SDS011;10075;50.924;4.396;2023-01-28T00:28:33;12.27;;;9.80;;
19828;SDS011;10075;50.924;4.396;2023-01-28T00:31:05;13.50;;;10.80;;
19828;SDS011;10075;50.924;4.396;2023-01-28T00:33:35;11.73;;;9.43;;
19828;SDS011;10075;50.924;4.396;2023-01-28T00:36:02;12.07;;;9.50;;
19828;SDS011;10075;50.924;4.396;2023-01-28T00:38:30;12.13;;;9.73;;
19828;SDS011;10075;50.924;4.396;2023-01-28T00:41:05;12.17;;;9.90;;
19828;SDS011;10075;50.924;4.396;2023-01-28T00:43:33;12.07;;;9.63;;
19828;SDS011;10075;50.924;4.396;2023-01-28T00:46:00;10.80;;;8.87;;
19828;SDS011;10075;50.924;4.396;2023-01-28T00:48:27;12.27;;;8.93;;
19828;SDS011;10075;50.924;4.396;2023-01-28T00:50:56;13.63;;;10.80;;
19828;SDS011;10075;50.924;4.396;2023-01-28T00:53:23;14.20;;;9.87;;
19828;SDS011;10075;50.924;4.396;2023-01-28T00:55:50;13.93;;;10.40;;
19828;SDS011;10075;50.924;4.396;2023-01-28T00:58:17;15.17;;;11.00;;
19828;SDS011;10075;50.924;4.396;2023-01-28T01:00:44;13.83;;;10.67;;
19828;SDS011;10075;50.924;4.396;2023-01-28T01:03:11;14.27;;;11.37;;
19828;SDS011;10075;50.924;4.396;2023-01-28T01:05:38;14.73;;;10.23;;
19828;SDS011;10075;50.924;4.396;2023-01-28T01:08:07;15.77;;;11.70;;
19828;SDS011;10075;50.924;4.396;2023-01-28T01:10:34;14.80;;;11.03;;
19828;SDS011;10075;50.924;4.396;2023-01-28T01:13:02;16.03;;;11.87;;
19828;SDS011;10075;50.924;4.396;2023-01-28T01:15:30;16.40;;;11.63;;
19828;SDS011;10075;50.924;4.396;2023-01-28T01:17:57;15.33;;;11.63;;
19828;SDS011;10075;50.924;4.396;2023-01-28T01:20:25;15.03;;;11.50;;
19828;SDS011;10075;50.924;4.396;2023-01-28T01:22:55;15.13;;;11.80;;
19828;SDS011;10075;50.924;4.396;2023-01-28T01:25:23;17.03;;;12.23;;
19828;SDS011;10075;50.924;4.396;2023-01-28T01:27:50;14.73;;;11.40;;
19828;SDS011;10075;50.924;4.396;2023-01-28T01:30:17;15.30;;;11.13;;
19828;SDS011;10075;50.924;4.396;2023-01-28T01:32:44;15.17;;;11.03;;
19828;SDS011;10075;50.924;4.396;2023-01-28T01:35:11;14.63;;;10.43;;
19828;SDS011;10075;50.924;4.396;2023-01-28T01:37:38;14.33;;;11.43;;
19828;SDS011;10075;50.924;4.396;2023-01-28T01:40:06;16.30;;;11.50;;
19828;SDS011;10075;50.924;4.396;2023-01-28T01:42:35;15.23;;;11.53;;
19828;SDS011;10075;50.924;4.396;2023-01-28T01:45:04;13.83;;;10.40;;
19828;SDS011;10075;50.924;4.396;2023-01-28T01:47:35;15.87;;;10.80;;
19828;SDS011;10075;50.924;4.396;2023-01-28T01:50:11;14.73;;;9.23;;
19828;SDS011;10075;50.924;4.396;2023-01-28T01:52:45;14.30;;;9.37;;
19828;SDS011;10075;50.924;4.396;2023-01-28T01:55:17;16.03;;;12.00;;
19828;SDS011;10075;50.924;4.396;2023-01-28T01:57:47;16.10;;;11.70;;
19828;SDS011;10075;50.924;4.396;2023-01-28T02:00:16;15.60;;;11.53;;
19828;SDS011;10075;50.924;4.396;2023-01-28T02:02:45;16.67;;;11.37;;
19828;SDS011;10075;50.924;4.396;2023-01-28T02:05:15;16.37;;;12.20;;
19828;SDS011;10075;50.924;4.396;2023-01-28T02:07:44;16.57;;;12.00;;
19828;SDS011;10075;50.924;4.396;2023-01-28T02:10:12;18.70;;;12.97;;
19828;SDS011;10075;50.924;4.396;2023-01-28T02:12:40;17.23;;;11.40;;
19828;SDS011;10075;50.924;4.396;2023-01-28T02:15:12;18.87;;;12.10;;
19828;SDS011;10075;50.924;4.396;2023-01-28T02:17:41;14.53;;;10.93;;
19828;SDS011;10075;50.924;4.396;2023-01-28T02:20:09;18.03;;;12.73;;
19828;SDS011;10075;50.924;4.396;2023-01-28T02:25:42;15.63;;;9.90;;
19828;SDS011;10075;50.924;4.396;2023-01-28T02:28:37;16.03;;;10.80;;
19828;SDS011;10075;50.924;4.396;2023-01-28T02:31:10;16.63;;;12.13;;
19828;SDS011;10075;50.924;4.396;2023-01-28T02:33:41;16.03;;;11.27;;
19828;SDS011;10075;50.924;4.396;2023-01-28T02:36:16;17.43;;;11.93;;
19828;SDS011;10075;50.924;4.396;2023-01-28T02:38:48;19.87;;;13.70;;
19828;SDS011;10075;50.924;4.396;2023-01-28T02:41:20;19.77;;;13.63;;
19828;SDS011;10075;50.924;4.396;2023-01-28T02:43:52;19.60;;;11.20;;
19828;SDS011;10075;50.924;4.396;2023-01-28T02:46:21;18.43;;;12.30;;
19828;SDS011;10075;50.924;4.396;2023-01-28T02:49:17;18.50;;;11.70;;
19828;SDS011;10075;50.924;4.396;2023-01-28T02:52:13;19.00;;;12.03;;
19828;SDS011;10075;50.924;4.396;2023-01-28T02:55:10;21.13;;;12.50;;
19828;SDS011;10075;50.924;4.396;2023-01-28T02:57:44;21.03;;;12.07;;
19828;SDS011;10075;50.924;4.396;2023-01-28T03:00:22;17.60;;;11.90;;
19828;SDS011;10075;50.924;4.396;2023-01-28T03:02:55;18.90;;;12.80;;
19828;SDS011;10075;50.924;4.396;2023-01-28T03:05:29;18.20;;;12.00;;
19828;SDS011;10075;50.924;4.396;2023-01-28T03:08:00;17.70;;;12.27;;
19828;SDS011;10075;50.924;4.396;2023-01-28T03:10:50;16.27;;;10.87;;
19828;SDS011;10075;50.924;4.396;2023-01-28T03:13:35;17.53;;;12.07;;
19828;SDS011;10075;50.924;4.396;2023-01-28T03:16:22;16.40;;;11.40;;
19828;SDS011;10075;50.924;4.396;2023-01-28T03:19:07;15.73;;;11.07;;
19828;SDS011;10075;50.924;4.396;2023-01-28T03:21:53;17.47;;;11.93;;
19828;SDS011;10075;50.924;4.396;2023-01-28T03:24:40;17.20;;;11.60;;
19828;SDS011;10075;50.924;4.396;2023-01-28T03:27:31;15.50;;;11.20;;
19828;SDS011;10075;50.924;4.396;2023-01-28T03:30:23;16.37;;;11.23;;
19828;SDS011;10075;50.924;4.396;2023-01-28T03:33:14;17.10;;;11.37;;
19828;SDS011;10075;50.924;4.396;2023-01-28T03:35:59;15.43;;;11.27;;
19828;SDS011;10075;50.924;4.396;2023-01-28T03:38:45;15.23;;;10.03;;
19828;SDS011;10075;50.924;4.396;2023-01-28T03:41:12;17.57;;;12.33;;
19828;SDS011;10075;50.924;4.396;2023-01-28T03:43:46;18.30;;;11.93;;
19828;SDS011;10075;50.924;4.396;2023-01-28T03:46:14;18.63;;;13.57;;
19828;SDS011;10075;50.924;4.396;2023-01-28T03:48:42;20.03;;;13.63;;
19828;SDS011;10075;50.924;4.396;2023-01-28T03:51:09;17.93;;;12.57;;
19828;SDS011;10075;50.924;4.396;2023-01-28T03:53:37;17.73;;;12.47;;
19828;SDS011;10075;50.924;4.396;2023-01-28T03:56:04;17.73;;;12.50;;
19828;SDS011;10075;50.924;4.396;2023-01-28T03:58:32;20.13;;;14.37;;
19828;SDS011;10075;50.924;4.396;2023-01-28T04:01:17;18.20;;;12.97;;
19828;SDS011;10075;50.924;4.396;2023-01-28T04:03:45;18.33;;;13.13;;
19828;SDS011;10075;50.924;4.396;2023-01-28T04:06:13;17.50;;;11.97;;
19828;SDS011;10075;50.924;4.396;2023-01-28T04:08:40;17.73;;;12.40;;
19828;SDS011;10075;50.924;4.396;2023-01-28T04:11:13;19.27;;;13.03;;
19828;SDS011;10075;50.924;4.396;2023-01-28T04:13:44;18.67;;;12.73;;
19828;SDS011;10075;50.924;4.396;2023-01-28T04:16:12;16.50;;;11.00;;
19828;SDS011;10075;50.924;4.396;2023-01-28T04:18:40;17.63;;;12.80;;
19828;SDS011;10075;50.924;4.396;2023-01-28T04:21:08;16.30;;;10.93;;
19828;SDS011;10075;50.924;4.396;2023-01-28T04:23:36;19.03;;;12.60;;
19828;SDS011;10075;50.924;4.396;2023-01-28T04:26:03;18.80;;;12.73;;
19828;SDS011;10075;50.924;4.396;2023-01-28T04:28:31;19.73;;;13.07;;
19828;SDS011;10075;50.924;4.396;2023-01-28T04:30:58;17.13;;;12.33;;
19828;SDS011;10075;50.924;4.396;2023-01-28T04:33:25;17.07;;;11.80;;
19828;SDS011;10075;50.924;4.396;2023-01-28T04:35:52;16.77;;;10.93;;
19828;SDS011;10075;50.924;4.396;2023-01-28T04:38:20;17.10;;;11.20;;
19828;SDS011;10075;50.924;4.396;2023-01-28T04:40:50;17.33;;;12.10;;
19828;SDS011;10075;50.924;4.396;2023-01-28T04:43:18;13.77;;;9.97;;
19828;SDS011;10075;50.924;4.396;2023-01-28T04:45:45;16.07;;;10.90;;
19828;SDS011;10075;50.924;4.396;2023-01-28T04:48:12;15.07;;;10.63;;
19828;SDS011;10075;50.924;4.396;2023-01-28T04:50:41;15.17;;;11.83;;
19828;SDS011;10075;50.924;4.396;2023-01-28T04:53:08;12.97;;;8.97;;
19828;SDS011;10075;50.924;4.396;2023-01-28T04:55:37;14.80;;;11.03;;
19828;SDS011;10075;50.924;4.396;2023-01-28T04:58:04;17.20;;;12.57;;
19828;SDS011;10075;50.924;4.396;2023-01-28T05:00:31;15.90;;;10.63;;
19828;SDS011;10075;50.924;4.396;2023-01-28T05:02:58;15.47;;;11.20;;
19828;SDS011;10075;50.924;4.396;2023-01-28T05:05:24;14.77;;;11.50;;
19828;SDS011;10075;50.924;4.396;2023-01-28T05:07:52;15.57;;;11.50;;
19828;SDS011;10075;50.924;4.396;2023-01-28T05:10:20;15.67;;;11.50;;
19828;SDS011;10075;50.924;4.396;2023-01-28T05:12:49;15.67;;;10.53;;
19828;SDS011;10075;50.924;4.396;2023-01-28T05:15:16;14.87;;;10.33;;
19828;SDS011;10075;50.924;4.396;2023-01-28T05:17:44;15.97;;;10.07;;
19828;SDS011;10075;50.924;4.396;2023-01-28T05:20:12;13.90;;;10.30;;
19828;SDS011;10075;50.924;4.396;2023-01-28T05:22:39;14.27;;;10.47;;
19828;SDS011;10075;50.924;4.396;2023-01-28T05:25:08;13.13;;;9.60;;
19828;SDS011;10075;50.924;4.396;2023-01-28T05:27:35;13.00;;;9.00;;
19828;SDS011;10075;50.924;4.396;2023-01-28T05:30:04;13.83;;;9.97;;
19828;SDS011;10075;50.924;4.396;2023-01-28T05:32:32;12.63;;;9.83;;
19828;SDS011;10075;50.924;4.396;2023-01-28T05:34:59;14.23;;;10.43;;
19828;SDS011;10075;50.924;4.396;2023-01-28T05:37:26;15.37;;;9.77;;
19828;SDS011;10075;50.924;4.396;2023-01-28T05:39:53;14.20;;;10.37;;
19828;SDS011;10075;50.924;4.396;2023-01-28T05:42:20;13.27;;;9.23;;
19828;SDS011;10075;50.924;4.396;2023-01-28T05:44:47;13.90;;;10.67;;
19828;SDS011;10075;50.924;4.396;2023-01-28T05:47:15;15.10;;;11.07;;
19828;SDS011;10075;50.924;4.396;2023-01-28T05:49:42;14.50;;;10.07;;
19828;SDS011;10075;50.924;4.396;2023-01-28T05:52:10;13.47;;;8.83;;
19828;SDS011;10075;50.924;4.396;2023-01-28T05:54:37;14.60;;;9.77;;
19828;SDS011;10075;50.924;4.396;2023-01-28T05:57:04;13.00;;;9.60;;
19828;SDS011;10075;50.924;4.396;2023-01-28T05:59:31;12.50;;;10.27;;
19828;SDS011;10075;50.924;4.396;2023-01-28T06:01:58;14.57;;;9.57;;
19828;SDS011;10075;50.924;4.396;2023-01-28T06:04:27;14.77;;;9.90;;
19828;SDS011;10075;50.924;4.396;2023-01-28T06:06:54;14.33;;;10.73;;
19828;SDS011;10075;50.924;4.396;2023-01-28T06:09:21;13.10;;;9.70;;
19828;SDS011;10075;50.924;4.396;2023-01-28T06:11:48;13.23;;;9.60;;
19828;SDS011;10075;50.924;4.396;2023-01-28T06:14:15;12.77;;;9.57;;
19828;SDS011;10075;50.924;4.396;2023-01-28T06:16:42;12.50;;;9.37;;
19828;SDS011;10075;50.924;4.396;2023-01-28T06:19:09;14.37;;;9.40;;
19828;SDS011;10075;50.924;4.396;2023-01-28T06:21:37;14.63;;;9.17;;
19828;SDS011;10075;50.924;4.396;2023-01-28T06:24:04;12.93;;;9.63;;
19828;SDS011;10075;50.924;4.396;2023-01-28T06:26:31;16.67;;;10.60;;
19828;SDS011;10075;50.924;4.396;2023-01-28T06:28:58;15.93;;;10.00;;
19828;SDS011;10075;50.924;4.396;2023-01-28T06:31:26;13.67;;;10.07;;
19828;SDS011;10075;50.924;4.396;2023-01-28T06:33:53;15.70;;;10.87;;
19828;SDS011;10075;50.924;4.396;2023-01-28T06:36:21;15.03;;;9.63;;
19828;SDS011;10075;50.924;4.396;2023-01-28T06:38:49;15.43;;;10.03;;
19828;SDS011;10075;50.924;4.396;2023-01-28T06:41:16;13.80;;;10.50;;
19828;SDS011;10075;50.924;4.396;2023-01-28T06:43:43;13.93;;;9.97;;
19828;SDS011;10075;50.924;4.396;2023-01-28T06:46:10;13.53;;;10.07;;
19828;SDS011;10075;50.924;4.396;2023-01-28T06:48:37;16.13;;;10.93;;
19828;SDS011;10075;50.924;4.396;2023-01-28T06:51:04;12.73;;;9.73;;
19828;SDS011;10075;50.924;4.396;2023-01-28T06:53:34;13.63;;;10.10;;
19828;SDS011;10075;50.924;4.396;2023-01-28T06:56:02;14.80;;;10.93;;
19828;SDS011;10075;50.924;4.396;2023-01-28T06:58:30;13.97;;;10.40;;
19828;SDS011;10075;50.924;4.396;2023-01-28T07:00:57;15.80;;;10.50;;
19828;SDS011;10075;50.924;4.396;2023-01-28T07:03:24;14.57;;;9.57;;
19828;SDS011;10075;50.924;4.396;2023-01-28T07:05:51;14.40;;;10.83;;
19828;SDS011;10075;50.924;4.396;2023-01-28T07:08:18;14.73;;;11.03;;
19828;SDS011;10075;50.924;4.396;2023-01-28T07:10:49;14.53;;;10.40;;
19828;SDS011;10075;50.924;4.396;2023-01-28T07:13:17;14.07;;;10.13;;
19828;SDS011;10075;50.924;4.396;2023-01-28T07:15:44;14.83;;;10.57;;
19828;SDS011;10075;50.924;4.396;2023-01-28T07:18:11;14.00;;;10.60;;
19828;SDS011;10075;50.924;4.396;2023-01-28T07:20:38;15.07;;;10.60;;
19828;SDS011;10075;50.924;4.396;2023-01-28T07:23:05;12.63;;;9.40;;
19828;SDS011;10075;50.924;4.396;2023-01-28T07:25:32;14.23;;;10.87;;
19828;SDS011;10075;50.924;4.396;2023-01-28T07:27:59;14.43;;;9.73;;
19828;SDS011;10075;50.924;4.396;2023-01-28T07:30:27;15.00;;;11.10;;
19828;SDS011;10075;50.924;4.396;2023-01-28T07:32:55;15.67;;;11.63;;
19828;SDS011;10075;50.924;4.396;2023-01-28T07:35:23;16.77;;;11.20;;
19828;SDS011;10075;50.924;4.396;2023-01-28T07:37:51;16.30;;;10.70;;
19828;SDS011;10075;50.924;4.396;2023-01-28T07:40:19;13.93;;;10.90;;
19828;SDS011;10075;50.924;4.396;2023-01-28T07:42:47;14.67;;;10.97;;
19828;SDS011;10075;50.924;4.396;2023-01-28T07:45:14;15.37;;;10.10;;
19828;SDS011;10075;50.924;4.396;2023-01-28T07:47:43;15.10;;;11.00;;
19828;SDS011;10075;50.924;4.396;2023-01-28T07:50:10;18.53;;;11.30;;
19828;SDS011;10075;50.924;4.396;2023-01-28T07:52:37;15.87;;;11.00;;
19828;SDS011;10075;50.924;4.396;2023-01-28T07:55:08;17.20;;;11.37;;
19828;SDS011;10075;50.924;4.396;2023-01-28T07:57:46;14.70;;;11.37;;
19828;SDS011;10075;50.924;4.396;2023-01-28T08:00:14;17.07;;;10.63;;
19828;SDS011;10075;50.924;4.396;2023-01-28T08:02:43;16.00;;;11.03;;
19828;SDS011;10075;50.924;4.396;2023-01-28T08:05:13;16.23;;;10.80;;
19828;SDS011;10075;50.924;4.396;2023-01-28T08:07:41;15.07;;;11.53;;
19828;SDS011;10075;50.924;4.396;2023-01-28T08:10:08;21.10;;;11.80;;
19828;SDS011;10075;50.924;4.396;2023-01-28T08:12:36;15.30;;;11.17;;
19828;SDS011;10075;50.924;4.396;2023-01-28T08:15:04;16.03;;;11.03;;
19828;SDS011;10075;50.924;4.396;2023-01-28T08:17:31;15.63;;;11.10;;
19828;SDS011;10075;50.924;4.396;2023-01-28T08:20:00;14.53;;;10.87;;
19828;SDS011;10075;50.924;4.396;2023-01-28T08:22:27;15.47;;;11.57;;
19828;SDS011;10075;50.924;4.396;2023-01-28T08:24:54;16.13;;;11.17;;
19828;SDS011;10075;50.924;4.396;2023-01-28T08:27:21;16.53;;;11.77;;
19828;SDS011;10075;50.924;4.396;2023-01-28T08:29:49;15.43;;;10.97;;
19828;SDS011;10075;50.924;4.396;2023-01-28T08:32:16;16.30;;;12.23;;
19828;SDS011;10075;50.924;4.396;2023-01-28T08:34:43;18.53;;;14.23;;
19828;SDS011;10075;50.924;4.396;2023-01-28T08:37:11;17.50;;;13.47;;
19828;SDS011;10075;50.924;4.396;2023-01-28T08:39:38;13.83;;;10.00;;
19828;SDS011;10075;50.924;4.396;2023-01-28T08:42:05;16.00;;;11.30;;
19828;SDS011;10075;50.924;4.396;2023-01-28T08:44:33;16.00;;;11.23;;
19828;SDS011;10075;50.924;4.396;2023-01-28T08:47:00;17.63;;;12.23;;
19828;SDS011;10075;50.924;4.396;2023-01-28T08:49:27;16.83;;;11.80;;
19828;SDS011;10075;50.924;4.396;2023-01-28T08:51:54;16.47;;;11.60;;
19828;SDS011;10075;50.924;4.396;2023-01-28T08:54:22;16.50;;;11.53;;
19828;SDS011;10075;50.924;4.396;2023-01-28T08:56:50;16.50;;;12.00;;
19828;SDS011;10075;50.924;4.396;2023-01-28T08:59:17;16.17;;;12.03;;
19828;SDS011;10075;50.924;4.396;2023-01-28T09:01:44;15.97;;;11.47;;
19828;SDS011;10075;50.924;4.396;2023-01-28T09:04:11;17.97;;;13.17;;
19828;SDS011;10075;50.924;4.396;2023-01-28T09:06:38;17.70;;;12.97;;
19828;SDS011;10075;50.924;4.396;2023-01-28T09:09:05;17.30;;;11.73;;
19828;SDS011;10075;50.924;4.396;2023-01-28T09:11:34;17.47;;;11.17;;
19828;SDS011;10075;50.924;4.396;2023-01-28T09:14:01;19.60;;;13.07;;
19828;SDS011;10075;50.924;4.396;2023-01-28T09:16:28;17.87;;;12.43;;
19828;SDS011;10075;50.924;4.396;2023-01-28T09:18:55;18.73;;;12.80;;
19828;SDS011;10075;50.924;4.396;2023-01-28T09:21:22;19.50;;;14.23;;
19828;SDS011;10075;50.924;4.396;2023-01-28T09:23:49;19.13;;;13.43;;
19828;SDS011;10075;50.924;4.396;2023-01-28T09:26:16;20.23;;;12.37;;
19828;SDS011;10075;50.924;4.396;2023-01-28T09:28:45;20.77;;;14.30;;
19828;SDS011;10075;50.924;4.396;2023-01-28T09:31:13;21.10;;;14.33;;
19828;SDS011;10075;50.924;4.396;2023-01-28T09:33:40;18.70;;;11.90;;
19828;SDS011;10075;50.924;4.396;2023-01-28T09:36:07;20.33;;;13.13;;
19828;SDS011;10075;50.924;4.396;2023-01-28T09:38:36;17.70;;;12.03;;
19828;SDS011;10075;50.924;4.396;2023-01-28T09:41:18;18.50;;;12.60;;
19828;SDS011;10075;50.924;4.396;2023-01-28T09:43:55;19.47;;;13.93;;
19828;SDS011;10075;50.924;4.396;2023-01-28T09:46:32;17.33;;;11.97;;
19828;SDS011;10075;50.924;4.396;2023-01-28T09:49:02;20.43;;;13.70;;
19828;SDS011;10075;50.924;4.396;2023-01-28T09:51:38;18.37;;;13.33;;
19828;SDS011;10075;50.924;4.396;2023-01-28T09:54:10;18.43;;;13.13;;
19828;SDS011;10075;50.924;4.396;2023-01-28T09:56:45;19.57;;;13.43;;
19828;SDS011;10075;50.924;4.396;2023-01-28T09:59:18;17.80;;;12.43;;
19828;SDS011;10075;50.924;4.396;2023-01-28T10:01:49;19.23;;;14.07;;
19828;SDS011;10075;50.924;4.396;2023-01-28T10:04:26;22.87;;;13.80;;
19828;SDS011;10075;50.924;4.396;2023-01-28T10:07:08;19.70;;;13.73;;
19828;SDS011;10075;50.924;4.396;2023-01-28T10:09:50;21.93;;;16.53;;
19828;SDS011;10075;50.924;4.396;2023-01-28T10:12:32;21.40;;;14.50;;
19828;SDS011;10075;50.924;4.396;2023-01-28T10:15:22;20.93;;;13.73;;
19828;SDS011;10075;50.924;4.396;2023-01-28T10:18:02;19.47;;;14.40;;
19828;SDS011;10075;50.924;4.396;2023-01-28T10:20:35;19.40;;;13.03;;
19828;SDS011;10075;50.924;4.396;2023-01-28T10:23:07;21.93;;;14.17;;
19828;SDS011;10075;50.924;4.396;2023-01-28T10:25:40;22.57;;;14.00;;
19828;SDS011;10075;50.924;4.396;2023-01-28T10:28:13;20.73;;;14.50;;
19828;SDS011;10075;50.924;4.396;2023-01-28T10:30:46;20.00;;;13.43;;
19828;SDS011;10075;50.924;4.396;2023-01-28T10:33:16;17.60;;;12.77;;
19828;SDS011;10075;50.924;4.396;2023-01-28T10:35:46;23.17;;;14.57;;
19828;SDS011;10075;50.924;4.396;2023-01-28T10:38:13;23.57;;;15.00;;
19828;SDS011;10075;50.924;4.396;2023-01-28T10:40:42;19.10;;;13.10;;
19828;SDS011;10075;50.924;4.396;2023-01-28T10:43:12;20.07;;;13.87;;
19828;SDS011;10075;50.924;4.396;2023-01-28T10:45:41;18.07;;;13.30;;
19828;SDS011;10075;50.924;4.396;2023-01-28T10:48:19;18.80;;;12.90;;
19828;SDS011;10075;50.924;4.396;2023-01-28T10:50:50;16.83;;;12.27;;
19828;SDS011;10075;50.924;4.396;2023-01-28T10:53:32;16.47;;;11.80;;
19828;SDS011;10075;50.924;4.396;2023-01-28T10:55:59;16.80;;;12.27;;
19828;SDS011;10075;50.924;4.396;2023-01-28T10:58:28;17.43;;;12.63;;
19828;SDS011;10075;50.924;4.396;2023-01-28T11:01:01;24.03;;;12.47;;
19828;SDS011;10075;50.924;4.396;2023-01-28T11:03:31;16.70;;;11.27;;
19828;SDS011;10075;50.924;4.396;2023-01-28T11:05:59;18.50;;;12.30;;
19828;SDS011;10075;50.924;4.396;2023-01-28T11:08:28;17.90;;;12.20;;
19828;SDS011;10075;50.924;4.396;2023-01-28T11:10:56;17.93;;;12.27;;
19828;SDS011;10075;50.924;4.396;2023-01-28T11:13:23;17.90;;;12.23;;
19828;SDS011;10075;50.924;4.396;2023-01-28T11:15:52;17.80;;;12.67;;
19828;SDS011;10075;50.924;4.396;2023-01-28T11:18:28;19.03;;;13.97;;
19828;SDS011;10075;50.924;4.396;2023-01-28T11:20:58;20.27;;;13.23;;
19828;SDS011;10075;50.924;4.396;2023-01-28T11:23:27;19.83;;;12.87;;
19828;SDS011;10075;50.924;4.396;2023-01-28T11:25:58;18.30;;;11.83;;
19828;SDS011;10075;50.924;4.396;2023-01-28T11:28:29;18.53;;;12.13;;
19828;SDS011;10075;50.924;4.396;2023-01-28T11:30:57;17.40;;;11.83;;
19828;SDS011;10075;50.924;4.396;2023-01-28T11:33:30;17.37;;;11.90;;
19828;SDS011;10075;50.924;4.396;2023-01-28T11:36:05;18.13;;;12.53;;
19828;SDS011;10075;50.924;4.396;2023-01-28T11:38:45;20.27;;;12.83;;
19828;SDS011;10075;50.924;4.396;2023-01-28T11:41:13;20.73;;;13.47;;
19828;SDS011;10075;50.924;4.396;2023-01-28T11:43:41;18.13;;;12.80;;
19828;SDS011;10075;50.924;4.396;2023-01-28T11:46:16;19.50;;;12.63;;
19828;SDS011;10075;50.924;4.396;2023-01-28T11:49:04;18.40;;;12.23;;
19828;SDS011;10075;50.924;4.396;2023-01-28T11:51:39;17.40;;;12.60;;
19828;SDS011;10075;50.924;4.396;2023-01-28T11:54:12;19.87;;;12.77;;
19828;SDS011;10075;50.924;4.396;2023-01-28T11:56:59;19.37;;;12.70;;
19828;SDS011;10075;50.924;4.396;2023-01-28T11:59:39;18.23;;;12.33;;
19828;SDS011;10075;50.924;4.396;2023-01-28T12:02:31;19.43;;;11.53;;
19828;SDS011;10075;50.924;4.396;2023-01-28T12:05:21;17.63;;;12.40;;
19828;SDS011;10075;50.924;4.396;2023-01-28T12:08:08;19.13;;;12.17;;
19828;SDS011;10075;50.924;4.396;2023-01-28T12:10:43;20.53;;;12.30;;
19828;SDS011;10075;50.924;4.396;2023-01-28T12:13:30;21.77;;;13.97;;
19828;SDS011;10075;50.924;4.396;2023-01-28T12:16:13;21.53;;;13.17;;
19828;SDS011;10075;50.924;4.396;2023-01-28T12:18:56;18.67;;;11.77;;
19828;SDS011;10075;50.924;4.396;2023-01-28T12:21:40;17.60;;;12.07;;
19828;SDS011;10075;50.924;4.396;2023-01-28T12:24:28;18.03;;;11.43;;
19828;SDS011;10075;50.924;4.396;2023-01-28T12:27:10;19.97;;;13.27;;
19828;SDS011;10075;50.924;4.396;2023-01-28T12:29:51;17.53;;;12.30;;
19828;SDS011;10075;50.924;4.396;2023-01-28T12:32:31;18.93;;;13.67;;
19828;SDS011;10075;50.924;4.396;2023-01-28T12:38:04;17.50;;;12.50;;
19828;SDS011;10075;50.924;4.396;2023-01-28T12:40:41;18.53;;;12.80;;
19828;SDS011;10075;50.924;4.396;2023-01-28T12:43:15;18.10;;;12.70;;
19828;SDS011;10075;50.924;4.396;2023-01-28T12:45:48;18.50;;;12.80;;
19828;SDS011;10075;50.924;4.396;2023-01-28T12:48:21;18.60;;;12.47;;
19828;SDS011;10075;50.924;4.396;2023-01-28T12:50:56;15.77;;;11.30;;
19828;SDS011;10075;50.924;4.396;2023-01-28T12:53:30;18.13;;;12.10;;
19828;SDS011;10075;50.924;4.396;2023-01-28T12:56:05;16.97;;;11.70;;
19828;SDS011;10075;50.924;4.396;2023-01-28T12:58:41;18.33;;;11.13;;
19828;SDS011;10075;50.924;4.396;2023-01-28T13:01:15;15.27;;;11.00;;
19828;SDS011;10075;50.924;4.396;2023-01-28T13:03:48;16.43;;;11.73;;
19828;SDS011;10075;50.924;4.396;2023-01-28T13:06:22;16.80;;;11.67;;
19828;SDS011;10075;50.924;4.396;2023-01-28T13:08:57;15.70;;;11.40;;
19828;SDS011;10075;50.924;4.396;2023-01-28T13:11:30;16.77;;;11.57;;
19828;SDS011;10075;50.924;4.396;2023-01-28T13:14:00;16.93;;;11.63;;
19828;SDS011;10075;50.924;4.396;2023-01-28T13:16:28;18.77;;;12.90;;
19828;SDS011;10075;50.924;4.396;2023-01-28T13:19:03;16.33;;;12.20;;
19828;SDS011;10075;50.924;4.396;2023-01-28T13:21:32;16.70;;;12.27;;
19828;SDS011;10075;50.924;4.396;2023-01-28T13:24:16;17.77;;;11.63;;
19828;SDS011;10075;50.924;4.396;2023-01-28T13:26:46;19.17;;;12.73;;
19828;SDS011;10075;50.924;4.396;2023-01-28T13:29:17;18.70;;;12.80;;
19828;SDS011;10075;50.924;4.396;2023-01-28T13:31:46;18.13;;;13.00;;
19828;SDS011;10075;50.924;4.396;2023-01-28T13:34:25;17.93;;;13.00;;
19828;SDS011;10075;50.924;4.396;2023-01-28T13:36:57;19.43;;;12.87;;
19828;SDS011;10075;50.924;4.396;2023-01-28T13:39:28;20.63;;;13.60;;
19828;SDS011;10075;50.924;4.396;2023-01-28T13:42:07;19.43;;;13.27;;
19828;SDS011;10075;50.924;4.396;2023-01-28T13:44:36;16.77;;;11.97;;
19828;SDS011;10075;50.924;4.396;2023-01-28T13:47:14;18.70;;;13.53;;
19828;SDS011;10075;50.924;4.396;2023-01-28T13:49:47;16.27;;;11.60;;
19828;SDS011;10075;50.924;4.396;2023-01-28T13:52:22;19.00;;;13.10;;
19828;SDS011;10075;50.924;4.396;2023-01-28T13:54:56;20.50;;;12.33;;
19828;SDS011;10075;50.924;4.396;2023-01-28T13:57:37;16.47;;;11.67;;
19828;SDS011;10075;50.924;4.396;2023-01-28T14:00:33;17.13;;;11.73;;
19828;SDS011;10075;50.924;4.396;2023-01-28T14:06:27;18.63;;;12.57;;
19828;SDS011;10075;50.924;4.396;2023-01-28T14:09:19;17.93;;;12.70;;
19828;SDS011;10075;50.924;4.396;2023-01-28T14:12:22;17.13;;;11.90;;
19828;SDS011;10075;50.924;4.396;2023-01-28T14:15:31;19.40;;;13.43;;
19828;SDS011;10075;50.924;4.396;2023-01-28T14:18:13;18.20;;;12.63;;
19828;SDS011;10075;50.924;4.396;2023-01-28T14:20:48;20.53;;;13.73;;
19828;SDS011;10075;50.924;4.396;2023-01-28T14:23:16;19.60;;;13.17;;
19828;SDS011;10075;50.924;4.396;2023-01-28T14:25:50;18.73;;;13.80;;
19828;SDS011;10075;50.924;4.396;2023-01-28T14:28:40;20.20;;;13.10;;
19828;SDS011;10075;50.924;4.396;2023-01-28T14:31:15;16.53;;;12.20;;
19828;SDS011;10075;50.924;4.396;2023-01-28T14:33:50;21.27;;;12.97;;
19828;SDS011;10075;50.924;4.396;2023-01-28T14:36:17;17.27;;;12.80;;
19828;SDS011;10075;50.924;4.396;2023-01-28T14:38:44;18.93;;;13.30;;
19828;SDS011;10075;50.924;4.396;2023-01-28T14:41:17;21.13;;;14.07;;
19828;SDS011;10075;50.924;4.396;2023-01-28T14:43:50;18.30;;;13.40;;
19828;SDS011;10075;50.924;4.396;2023-01-28T14:46:26;19.80;;;14.30;;
19828;SDS011;10075;50.924;4.396;2023-01-28T14:49:14;21.50;;;15.53;;
19828;SDS011;10075;50.924;4.396;2023-01-28T14:52:03;25.67;;;18.13;;
19828;SDS011;10075;50.924;4.396;2023-01-28T14:54:46;19.67;;;13.70;;
19828;SDS011;10075;50.924;4.396;2023-01-28T14:57:34;18.67;;;13.60;;
19828;SDS011;10075;50.924;4.396;2023-01-28T15:00:17;17.77;;;13.13;;